createdAt,value
2022-10-29T00:00:02.439Z,13.8
2022-10-29T00:15:02.868Z,13.8
2022-10-29T00:30:02.309Z,13.6
2022-10-29T00:45:02.808Z,13.6
2022-10-29T01:00:03.187Z,13.6
2022-10-29T01:15:02.822Z,13.7
2022-10-29T01:30:02.045Z,13.8
2022-10-29T01:45:02.496Z,13.8
2022-10-29T02:00:02.913Z,13.5
2022-10-29T02:15:02.343Z,13.2
2022-10-29T02:30:02.856Z,13.2
2022-10-29T02:45:02.236Z,12.9
2022-10-29T03:00:02.870Z,12.7
2022-10-29T03:15:02.124Z,12.5
2022-10-29T03:30:02.576Z,12.2
2022-10-29T03:45:03.003Z,12.1
2022-10-29T04:00:02.434Z,12.1
2022-10-29T04:15:02.887Z,12.1
2022-10-29T04:30:02.430Z,12.1
2022-10-29T04:45:02.866Z,12.1
2022-10-29T05:00:02.297Z,12.2
2022-10-29T05:15:02.820Z,12.4
2022-10-29T05:30:02.068Z,12.5
2022-10-29T05:45:02.488Z,12.5
2022-10-29T06:00:02.938Z,12.5
2022-10-29T06:15:02.372Z,12.3
2022-10-29T06:30:02.907Z,12.1
2022-10-29T06:45:02.235Z,12.1
2022-10-29T07:00:07.342Z,12.0
2022-10-29T07:15:03.118Z,12.1
2022-10-29T07:30:02.550Z,12.4
2022-10-29T07:45:03.037Z,13.1
2022-10-29T08:00:02.467Z,13.8
2022-10-29T08:15:02.909Z,14.5
2022-10-29T08:30:02.334Z,15.0
2022-10-29T08:45:02.907Z,15.6
2022-10-29T09:00:02.249Z,16.2
2022-10-29T09:15:02.655Z,16.5
2022-10-29T09:30:03.097Z,17.2
2022-10-29T09:45:02.521Z,18.3
2022-10-29T10:00:02.955Z,18.8
2022-10-29T10:15:02.367Z,19.5
2022-10-29T10:30:02.942Z,19.6
2022-10-29T10:45:02.246Z,19.9
2022-10-29T11:00:02.901Z,20.4
2022-10-29T11:15:02.187Z,21.0
2022-10-29T11:30:02.556Z,21.3
2022-10-29T11:45:03.028Z,21.8
2022-10-29T12:00:02.466Z,23.0
2022-10-29T12:15:02.976Z,22.8
2022-10-29T12:30:02.324Z,22.4
2022-10-29T12:45:02.974Z,22.3
2022-10-29T13:00:02.202Z,22.7
2022-10-29T13:15:02.622Z,22.4
2022-10-29T13:30:03.074Z,22.2
2022-10-29T13:45:02.488Z,22.2
2022-10-29T14:00:03.004Z,21.8
2022-10-29T14:15:02.386Z,21.3
2022-10-29T14:30:03.005Z,21.0
2022-10-29T14:45:02.272Z,20.5
2022-10-29T15:00:02.727Z,20.1
2022-10-29T15:15:03.153Z,19.5
2022-10-29T15:30:02.595Z,19.0
2022-10-29T15:45:03.042Z,18.5
2022-10-29T16:15:03.008Z,17.4
2022-10-29T16:30:02.314Z,16.8
2022-10-29T16:45:02.764Z,16.2
2022-10-29T17:00:03.187Z,15.9
2022-10-29T17:15:02.611Z,15.5
2022-10-29T17:30:03.065Z,15.3
2022-10-29T17:45:02.492Z,15.0
2022-10-29T18:00:03.039Z,14.7
2022-10-29T18:15:02.384Z,14.5
2022-10-29T18:30:03.039Z,14.2
2022-10-29T18:45:02.256Z,14.0
2022-10-29T19:00:02.670Z,13.9
2022-10-29T19:15:03.116Z,13.7
2022-10-29T19:30:02.545Z,13.6
2022-10-29T19:45:03.047Z,13.5
2022-10-29T20:00:02.407Z,13.5
2022-10-29T20:15:03.054Z,13.5
2022-10-29T20:30:02.272Z,13.5
2022-10-29T20:45:02.720Z,13.4
2022-10-29T21:00:03.154Z,13.4
2022-10-29T21:15:02.586Z,13.5
2022-10-29T21:30:03.088Z,13.6
2022-10-29T21:45:02.460Z,13.6
2022-10-29T22:00:03.084Z,13.7
2022-10-29T22:15:03.348Z,13.7
2022-10-29T22:30:02.783Z,13.8
2022-10-29T22:45:03.218Z,13.8
2022-10-29T23:00:02.654Z,13.8
2022-10-29T23:15:03.105Z,13.7
2022-10-29T23:30:02.606Z,13.7
2022-10-29T23:45:06.895Z,13.7
